Time;durP1;ratioP1;P1;durP2;ratioP2;P2;SDS_P1;SDS_P2;PMS_P1;PMS_P2;Temp;Humidity;BMP_temperature;BMP_pressure;BME280_temperature;BME280_humidity;BME280_pressure;Samples;Min_cycle;Max_cycle;Signal;HPM_P1;HPM_P2
2023/08/20 00:01:23;;;;;;;8.40;6.87;;;21.20;53.90;;;;;;5074228;28;20909;-69
2023/08/20 00:03:51;;;;;;;6.73;6.03;;;21.20;54.30;;;;;;5074261;28;20428;-69
2023/08/20 00:06:17;;;;;;;8.67;7.97;;;21.10;54.60;;;;;;5074443;28;20452;-69
2023/08/20 00:08:42;;;;;;;8.90;8.00;;;21.10;55.60;;;;;;5074246;28;20416;-70
2023/08/20 00:11:09;;;;;;;8.60;7.80;;;21.00;56.20;;;;;;5074339;28;20491;-70
2023/08/20 00:13:35;;;;;;;10.37;7.93;;;21.00;56.60;;;;;;5073902;28;20186;-69
2023/08/20 00:16:01;;;;;;;7.27;6.50;;;20.90;57.00;;;;;;5056152;28;20420;-69
2023/08/20 00:18:27;;;;;;;9.70;6.90;;;20.90;57.20;;;;;;5074335;28;20178;-69
2023/08/20 00:20:53;;;;;;;9.43;8.53;;;20.90;57.30;;;;;;5074030;28;20198;-69
2023/08/20 00:23:19;;;;;;;9.00;8.13;;;20.80;58.60;;;;;;5073782;28;20427;-69
2023/08/20 00:25:45;;;;;;;8.87;7.97;;;20.90;58.70;;;;;;5073786;28;20829;-70
2023/08/20 00:28:10;;;;;;;8.57;7.13;;;20.80;58.50;;;;;;5073696;28;20531;-69
2023/08/20 00:30:36;;;;;;;8.30;7.50;;;20.90;58.20;;;;;;5073905;28;20170;-69
2023/08/20 00:33:02;;;;;;;9.30;8.27;;;20.80;58.70;;;;;;5073717;28;20205;-69
2023/08/20 00:35:27;;;;;;;10.20;8.47;;;20.80;59.00;;;;;;5073794;28;20599;-69
2023/08/20 00:37:53;;;;;;;10.40;7.93;;;20.80;59.80;;;;;;5073929;28;20443;-69
2023/08/20 00:40:19;;;;;;;9.53;8.57;;;20.80;59.60;;;;;;5073650;28;20242;-69
2023/08/20 00:42:44;;;;;;;8.67;7.87;;;20.80;59.90;;;;;;5073243;28;20217;-69
2023/08/20 00:45:10;;;;;;;8.30;7.23;;;20.70;60.40;;;;;;5073373;28;20205;-69
2023/08/20 00:47:37;;;;;;;7.90;7.10;;;20.70;60.90;;;;;;5073873;28;20312;-69
2023/08/20 00:50:12;;;;;;;11.30;8.20;;;20.60;60.90;;;;;;5073526;28;20758;-70
2023/08/20 00:52:38;;;;;;;8.60;7.80;;;20.60;61.70;;;;;;5072935;28;20569;-69
2023/08/20 00:55:09;;;;;;;14.47;7.83;;;20.60;63.00;;;;;;5055569;28;20503;-70
2023/08/20 00:57:38;;;;;;;9.40;7.97;;;20.50;63.50;;;;;;5055400;28;20419;-71
2023/08/20 01:00:07;;;;;;;9.20;8.37;;;20.50;64.00;;;;;;5073745;28;20519;-71
2023/08/20 01:02:33;;;;;;;8.70;7.70;;;20.40;64.60;;;;;;5073612;28;20502;-73
2023/08/20 01:04:59;;;;;;;10.40;8.73;;;20.40;65.00;;;;;;5072976;28;20458;-70
2023/08/20 01:07:33;;;;;;;9.70;8.70;;;20.40;66.00;;;;;;5073163;28;20458;-70
2023/08/20 01:10:23;;;;;;;9.23;8.30;;;20.40;65.40;;;;;;5072905;28;20426;-70
2023/08/20 01:12:51;;;;;;;10.27;9.30;;;20.40;65.40;;;;;;5072289;28;20436;-70
2023/08/20 01:15:17;;;;;;;9.70;8.40;;;20.30;65.60;;;;;;5072947;28;20470;-70
2023/08/20 01:17:43;;;;;;;10.40;8.50;;;20.30;65.20;;;;;;5072710;28;20952;-70
2023/08/20 01:20:13;;;;;;;9.63;8.63;;;20.30;65.80;;;;;;5072870;28;20636;-70
2023/08/20 01:22:59;;;;;;;8.90;7.23;;;20.30;66.40;;;;;;5072400;28;20446;-70
2023/08/20 01:26:02;;;;;;;10.77;9.67;;;20.30;65.80;;;;;;5072528;28;20452;-70
2023/08/20 01:28:30;;;;;;;10.53;8.80;;;20.30;65.80;;;;;;5072557;28;20490;-71
2023/08/20 01:31:03;;;;;;;10.23;8.40;;;20.30;65.90;;;;;;5072605;28;20408;-71
2023/08/20 01:33:30;;;;;;;9.20;8.27;;;20.30;66.20;;;;;;5072072;28;20420;-71
2023/08/20 01:35:55;;;;;;;10.40;9.30;;;20.30;67.70;;;;;;5072494;28;20408;-71
2023/08/20 01:38:21;;;;;;;9.93;8.93;;;20.20;67.60;;;;;;5072493;28;20420;-70
2023/08/20 01:40:48;;;;;;;9.10;7.43;;;20.20;67.70;;;;;;5072236;28;20256;-69
2023/08/20 01:43:13;;;;;;;10.10;8.43;;;20.20;67.40;;;;;;5072579;28;20452;-69
2023/08/20 01:45:39;;;;;;;10.10;9.20;;;20.30;67.90;;;;;;5072262;28;21056;-70
2023/08/20 01:48:05;;;;;;;9.17;8.30;;;20.20;67.90;;;;;;5072296;28;20185;-69
2023/08/20 01:50:31;;;;;;;8.97;8.10;;;20.20;68.20;;;;;;5072211;28;20527;-70
2023/08/20 01:52:56;;;;;;;10.23;8.50;;;20.20;68.60;;;;;;5071908;28;20497;-69
2023/08/20 01:55:22;;;;;;;7.20;6.50;;;20.20;68.70;;;;;;5072143;28;20178;-70
2023/08/20 01:57:48;;;;;;;9.07;7.37;;;20.20;69.10;;;;;;5072201;28;20254;-69
2023/08/20 02:00:13;;;;;;;10.10;9.00;;;20.20;69.40;;;;;;5072097;28;20177;-69
2023/08/20 02:02:39;;;;;;;11.17;9.87;;;20.10;69.70;;;;;;5071785;28;20201;-70
2023/08/20 02:05:05;;;;;;;9.70;8.70;;;20.10;70.30;;;;;;5072002;28;20197;-69
2023/08/20 02:07:30;;;;;;;11.93;10.70;;;20.20;70.90;;;;;;5072043;28;20178;-70
2023/08/20 02:09:56;;;;;;;10.33;9.10;;;20.10;70.80;;;;;;5072194;28;20588;-70
2023/08/20 02:12:21;;;;;;;9.90;8.30;;;20.10;70.80;;;;;;5071673;28;20248;-70
2023/08/20 02:14:47;;;;;;;12.10;9.10;;;20.00;70.70;;;;;;5071338;28;20754;-71
2023/08/20 02:17:14;;;;;;;10.17;9.17;;;20.10;70.20;;;;;;5071567;28;20805;-71
2023/08/20 02:19:39;;;;;;;9.83;8.93;;;20.10;69.90;;;;;;5071962;28;20189;-71
2023/08/20 02:22:05;;;;;;;14.37;8.20;;;20.10;70.00;;;;;;5072010;28;20424;-71
2023/08/20 02:24:30;;;;;;;9.50;8.13;;;20.10;70.10;;;;;;5072059;28;20177;-71
2023/08/20 02:26:56;;;;;;;9.87;8.30;;;20.00;70.70;;;;;;5071846;28;20177;-70
2023/08/20 02:29:22;;;;;;;11.00;9.50;;;20.00;71.40;;;;;;5071766;28;20718;-71
2023/08/20 02:31:47;;;;;;;9.93;8.90;;;19.90;71.80;;;;;;5071538;28;20499;-71
2023/08/20 02:34:13;;;;;;;10.13;9.13;;;20.00;71.50;;;;;;5071637;28;20710;-71
2023/08/20 02:36:39;;;;;;;10.37;9.37;;;19.90;71.50;;;;;;5071723;28;20185;-71
2023/08/20 02:39:07;;;;;;;13.33;9.20;;;19.90;72.90;;;;;;5071684;28;20596;-71
2023/08/20 02:41:36;;;;;;;8.57;7.67;;;19.80;72.80;;;;;;5071425;28;20170;-70
2023/08/20 02:44:02;;;;;;;12.30;11.00;;;19.80;73.30;;;;;;5071640;28;20835;-70
2023/08/20 02:46:28;;;;;;;9.90;8.87;;;19.80;73.50;;;;;;5072105;28;20468;-70
2023/08/20 02:48:53;;;;;;;9.20;8.20;;;19.80;72.90;;;;;;5072690;28;20431;-70
2023/08/20 02:51:19;;;;;;;10.40;9.33;;;19.90;72.30;;;;;;5072319;28;20170;-70
2023/08/20 02:53:44;;;;;;;11.60;8.57;;;19.80;72.20;;;;;;5071336;28;20194;-70
2023/08/20 02:56:10;;;;;;;9.77;8.80;;;19.80;72.80;;;;;;5071510;28;20612;-70
2023/08/20 02:58:35;;;;;;;10.93;9.43;;;19.70;73.40;;;;;;5053514;28;20519;-70
2023/08/20 03:01:01;;;;;;;11.20;9.07;;;19.70;74.20;;;;;;5071626;28;20194;-71
2023/08/20 03:03:27;;;;;;;9.80;8.03;;;19.70;73.50;;;;;;5071156;28;20190;-71
2023/08/20 03:05:53;;;;;;;11.20;10.13;;;19.70;74.10;;;;;;5071306;28;20561;-70
2023/08/20 03:08:18;;;;;;;9.57;8.60;;;19.70;74.10;;;;;;5071419;28;20941;-70
2023/08/20 03:10:44;;;;;;;10.00;9.07;;;19.70;73.90;;;;;;5071351;28;20174;-70
2023/08/20 03:13:09;;;;;;;13.30;9.00;;;19.70;74.10;;;;;;5071302;28;20209;-71
2023/08/20 03:15:35;;;;;;;15.00;9.67;;;19.70;75.10;;;;;;5071465;28;20190;-71
2023/08/20 03:18:00;;;;;;;9.10;7.80;;;19.60;75.40;;;;;;5071332;28;20556;-71
2023/08/20 03:20:28;;;;;;;11.03;8.83;;;19.60;75.40;;;;;;5071330;28;20178;-71
2023/08/20 03:22:53;;;;;;;17.67;8.87;;;19.60;75.40;;;;;;5070867;28;20200;-71
2023/08/20 03:25:19;;;;;;;14.13;10.17;;;19.60;75.40;;;;;;5071221;28;21074;-71
2023/08/20 03:27:45;;;;;;;12.80;10.00;;;19.60;75.80;;;;;;5073590;28;20182;-71
2023/08/20 03:30:11;;;;;;;12.50;9.20;;;19.60;75.40;;;;;;5074939;28;20256;-71
2023/08/20 03:32:38;;;;;;;12.13;10.20;;;19.60;75.40;;;;;;5056587;28;20205;-71
2023/08/20 03:35:04;;;;;;;13.83;11.00;;;19.50;76.20;;;;;;5075153;28;20651;-70
2023/08/20 03:37:29;;;;;;;9.87;8.87;;;19.50;77.20;;;;;;5074842;28;20415;-70
2023/08/20 03:39:55;;;;;;;10.50;9.47;;;19.50;78.40;;;;;;5074672;28;20538;-70
2023/08/20 03:42:20;;;;;;;12.10;9.87;;;19.50;78.80;;;;;;5073600;28;20533;-70
2023/08/20 03:44:46;;;;;;;12.90;9.67;;;19.40;79.10;;;;;;5074367;28;20253;-70
2023/08/20 03:47:12;;;;;;;12.47;9.40;;;19.40;79.40;;;;;;5074650;28;20181;-70
2023/08/20 03:49:38;;;;;;;10.67;9.43;;;19.40;79.20;;;;;;5074618;28;20412;-70
2023/08/20 03:52:04;;;;;;;11.37;10.20;;;19.40;79.30;;;;;;5074321;28;20678;-70
2023/08/20 03:54:30;;;;;;;11.80;9.77;;;19.30;79.20;;;;;;5074374;28;20176;-71
2023/08/20 03:56:55;;;;;;;11.20;10.10;;;19.30;80.10;;;;;;5074306;28;20416;-70
2023/08/20 03:59:21;;;;;;;9.43;7.37;;;19.30;80.20;;;;;;5074333;28;20491;-70
2023/08/20 04:01:47;;;;;;;11.97;9.13;;;19.30;80.20;;;;;;5074115;28;20184;-70
2023/08/20 04:04:12;;;;;;;10.23;9.20;;;19.30;80.60;;;;;;5074160;28;20435;-70
2023/08/20 04:06:38;;;;;;;10.53;9.33;;;19.40;80.30;;;;;;5074055;28;20204;-70
2023/08/20 04:09:04;;;;;;;10.93;9.93;;;19.40;78.90;;;;;;5074104;28;20170;-70
2023/08/20 04:11:29;;;;;;;13.13;9.07;;;19.30;78.70;;;;;;5073913;28;20584;-70
2023/08/20 04:13:55;;;;;;;11.17;9.83;;;19.30;78.50;;;;;;5073908;28;20194;-70
2023/08/20 04:16:21;;;;;;;10.07;9.07;;;19.30;78.60;;;;;;5074124;28;20174;-70
2023/08/20 04:18:47;;;;;;;10.23;8.57;;;19.30;79.50;;;;;;5074010;28;20640;-70
2023/08/20 04:21:13;;;;;;;12.00;10.60;;;19.30;80.10;;;;;;5073963;28;20432;-70
2023/08/20 04:23:38;;;;;;;11.23;10.10;;;19.20;80.10;;;;;;5073693;28;20529;-70
2023/08/20 04:26:04;;;;;;;10.17;9.27;;;19.20;80.40;;;;;;5073797;28;20212;-70
2023/08/20 04:28:30;;;;;;;10.63;9.50;;;19.20;80.70;;;;;;5074065;28;20174;-70
2023/08/20 04:30:56;;;;;;;10.03;9.13;;;19.20;81.70;;;;;;5074273;28;20698;-70
2023/08/20 04:33:21;;;;;;;11.17;10.00;;;19.30;80.80;;;;;;5074550;28;20217;-70
2023/08/20 04:35:50;;;;;;;11.43;9.77;;;19.30;81.20;;;;;;5075013;28;20465;-71
2023/08/20 04:38:16;;;;;;;11.03;9.80;;;19.30;81.20;;;;;;5073686;28;20170;-71
2023/08/20 04:40:41;;;;;;;10.23;8.47;;;19.40;82.70;;;;;;5056405;28;20473;-70
2023/08/20 04:43:07;;;;;;;11.87;9.53;;;19.40;81.80;;;;;;5073460;28;20214;-70
2023/08/20 04:45:32;;;;;;;11.17;8.03;;;19.40;81.20;;;;;;5073709;28;20682;-70
2023/08/20 04:47:59;;;;;;;10.23;8.90;;;19.50;80.60;;;;;;5074119;28;20221;-70
2023/08/20 04:50:25;;;;;;;9.90;8.90;;;19.60;80.00;;;;;;5073525;28;20284;-70
2023/08/20 04:52:51;;;;;;;10.43;9.20;;;19.70;79.20;;;;;;5055148;28;20451;-69
2023/08/20 04:55:16;;;;;;;8.83;7.67;;;19.60;80.50;;;;;;5073634;28;20185;-70
2023/08/20 04:57:42;;;;;;;10.87;9.80;;;19.70;79.30;;;;;;5054931;28;20193;-70
2023/08/20 05:00:09;;;;;;;10.33;9.33;;;19.90;77.60;;;;;;5073031;28;20262;-70
2023/08/20 05:02:35;;;;;;;9.10;7.77;;;19.90;77.30;;;;;;5072999;28;20205;-70
2023/08/20 05:05:01;;;;;;;14.60;8.23;;;19.90;77.80;;;;;;5073136;28;20813;-70
2023/08/20 05:07:27;;;;;;;12.93;9.67;;;20.00;76.70;;;;;;5056202;28;20605;-70
2023/08/20 05:09:52;;;;;;;9.77;8.77;;;20.10;75.70;;;;;;5073785;28;20500;-70
2023/08/20 05:12:18;;;;;;;10.50;9.07;;;20.10;75.20;;;;;;5073288;28;20166;-69
2023/08/20 05:14:44;;;;;;;9.43;8.53;;;20.30;74.30;;;;;;5073884;28;20209;-70
2023/08/20 05:17:09;;;;;;;11.63;10.50;;;20.30;73.10;;;;;;5073617;28;20193;-71
2023/08/20 05:19:35;;;;;;;11.77;9.50;;;20.30;71.60;;;;;;5073427;28;20519;-70
2023/08/20 05:22:00;;;;;;;10.50;9.40;;;20.40;69.70;;;;;;5073267;28;20174;-70
2023/08/20 05:24:26;;;;;;;15.10;11.20;;;20.40;69.10;;;;;;5073714;28;20197;-71
2023/08/20 05:27:05;;;;;;;13.23;8.57;;;20.40;67.10;;;;;;5073345;28;20209;-70
2023/08/20 05:29:31;;;;;;;10.17;9.10;;;20.60;67.60;;;;;;5072939;28;20287;-70
2023/08/20 05:31:57;;;;;;;10.30;9.30;;;20.70;65.00;;;;;;5072456;28;20515;-71
2023/08/20 05:34:22;;;;;;;10.53;9.40;;;20.90;64.40;;;;;;5072649;28;20194;-71
2023/08/20 05:36:48;;;;;;;11.60;9.90;;;21.30;60.40;;;;;;5073041;28;20178;-74
2023/08/20 05:39:13;;;;;;;10.73;9.63;;;21.50;57.80;;;;;;5073319;28;20181;-72
2023/08/20 05:41:39;;;;;;;8.87;8.03;;;21.80;56.00;;;;;;5073034;28;20185;-71
2023/08/20 05:44:05;;;;;;;8.30;7.27;;;22.30;52.30;;;;;;5072572;28;20607;-72
2023/08/20 05:46:30;;;;;;;11.40;9.00;;;23.20;48.00;;;;;;5072870;28;20224;-71
2023/08/20 05:48:56;;;;;;;9.60;7.90;;;24.80;39.20;;;;;;5073393;28;20648;-71
2023/08/20 05:51:21;;;;;;;13.93;7.70;;;26.20;32.00;;;;;;5072470;28;20170;-71
2023/08/20 05:53:50;;;;;;;7.73;7.03;;;26.60;28.20;;;;;;5072195;28;20237;-71
2023/08/20 05:56:15;;;;;;;6.87;6.17;;;27.70;25.80;;;;;;5072517;28;20246;-71
2023/08/20 05:58:41;;;;;;;10.73;7.30;;;28.30;23.30;;;;;;5072736;28;20416;-71
2023/08/20 06:01:06;;;;;;;10.30;7.67;;;29.50;20.70;;;;;;5072332;28;20200;-71
2023/08/20 06:03:32;;;;;;;10.97;8.00;;;30.50;17.20;;;;;;5071972;28;20197;-71
2023/08/20 06:05:58;;;;;;;6.87;6.17;;;31.00;15.20;;;;;;5072241;28;20201;-71
2023/08/20 06:08:23;;;;;;;9.30;6.93;;;31.40;14.40;;;;;;5072272;28;20201;-71
2023/08/20 06:10:50;;;;;;;8.60;7.80;;;32.00;13.10;;;;;;5072177;28;20751;-71
2023/08/20 06:13:16;;;;;;;7.50;6.90;;;32.30;11.60;;;;;;5071813;28;20181;-71
2023/08/20 06:15:41;;;;;;;7.90;7.13;;;33.00;10.60;;;;;;5072050;28;20473;-71
2023/08/20 06:18:07;;;;;;;7.10;6.50;;;33.70;9.10;;;;;;5071870;28;20258;-71
2023/08/20 06:20:32;;;;;;;8.80;8.10;;;34.10;8.10;;;;;;5072131;28;20180;-70
2023/08/20 06:22:58;;;;;;;9.17;8.00;;;33.90;8.00;;;;;;5071929;28;20691;-71
2023/08/20 06:25:23;;;;;;;8.90;8.10;;;33.70;7.60;;;;;;5072919;28;20675;-71
2023/08/20 06:27:49;;;;;;;9.13;8.33;;;34.20;7.20;;;;;;5072554;28;20174;-71
2023/08/20 06:30:18;;;;;;;8.87;8.07;;;34.30;6.90;;;;;;5072334;28;20537;-72
2023/08/20 06:32:46;;;;;;;8.67;7.70;;;34.50;6.60;;;;;;5071849;28;20202;-71
2023/08/20 06:35:12;;;;;;;9.33;8.43;;;35.10;5.20;;;;;;5071984;28;20411;-71
2023/08/20 06:37:40;;;;;;;8.60;7.67;;;34.80;6.00;;;;;;5072087;28;20408;-71
2023/08/20 06:40:07;;;;;;;13.87;8.23;;;35.10;5.30;;;;;;5072038;28;20634;-71
2023/08/20 06:42:33;;;;;;;8.97;8.20;;;35.20;5.80;;;;;;5071574;28;20523;-71
2023/08/20 06:44:59;;;;;;;9.57;8.17;;;35.50;5.30;;;;;;5071662;28;20534;-71
2023/08/20 06:47:25;;;;;;;8.10;7.50;;;35.80;3.90;;;;;;5071843;28;20603;-71
2023/08/20 06:49:50;;;;;;;9.20;8.37;;;36.30;3.80;;;;;;5072055;28;20181;-71
2023/08/20 06:52:16;;;;;;;10.47;9.47;;;37.20;1.00;;;;;;5071556;28;20573;-71
2023/08/20 06:54:42;;;;;;;8.97;8.37;;;37.70;1.00;;;;;;5071696;28;20539;-71
2023/08/20 06:57:07;;;;;;;9.33;8.63;;;37.80;1.00;;;;;;5072152;28;20416;-71
2023/08/20 06:59:33;;;;;;;8.70;8.00;;;38.20;1.00;;;;;;5071791;28;20198;-71
2023/08/20 07:01:58;;;;;;;9.40;8.60;;;38.40;1.00;;;;;;5057427;28;20182;-71
2023/08/20 07:04:24;;;;;;;9.30;8.40;;;39.20;1.00;;;;;;5095693;28;20184;-71
2023/08/20 07:06:51;;;;;;;8.93;8.33;;;39.20;1.00;;;;;;5095724;28;20201;-71
2023/08/20 07:09:16;;;;;;;9.27;8.47;;;39.00;1.00;;;;;;5095784;28;20226;-70
2023/08/20 07:11:42;;;;;;;9.50;8.70;;;39.00;1.00;;;;;;5095431;28;20419;-71
2023/08/20 07:14:07;;;;;;;8.30;7.60;;;39.00;1.00;;;;;;5095780;28;20199;-74
2023/08/20 07:16:33;;;;;;;9.73;8.90;;;39.20;1.00;;;;;;5095858;28;20204;-71
2023/08/20 07:18:59;;;;;;;10.97;9.97;;;39.20;1.00;;;;;;5095942;28;20177;-73
2023/08/20 07:21:25;;;;;;;8.20;7.60;;;37.70;1.00;;;;;;5096062;28;20257;-72
2023/08/20 07:23:50;;;;;;;10.00;8.97;;;37.00;1.00;;;;;;5096120;28;20204;-72
2023/08/20 07:26:16;;;;;;;9.33;8.70;;;36.90;1.00;;;;;;5095505;28;20455;-72
2023/08/20 07:29:15;;;;;;;8.83;7.97;;;36.80;1.00;;;;;;5095390;28;20664;-71
2023/08/20 07:31:34;;;;;;;9.90;9.10;;;36.70;1.00;;;;;;5091413;28;20585;-73
2023/08/20 07:34:01;;;;;;;9.77;8.20;;;36.10;1.00;;;;;;5095457;28;20462;-69
2023/08/20 07:36:27;;;;;;;10.97;10.07;;;35.50;1.00;;;;;;5095729;28;20631;-70
2023/08/20 07:38:53;;;;;;;8.63;7.83;;;34.80;1.00;;;;;;5077877;28;20441;-70
2023/08/20 07:41:22;;;;;;;9.77;8.87;;;34.20;1.00;;;;;;5097340;28;20230;-71
2023/08/20 07:43:48;;;;;;;8.07;7.40;;;34.10;6.40;;;;;;5118723;22;20589;-68
2023/08/20 07:46:15;;;;;;;11.50;8.90;;;34.70;5.20;;;;;;5094816;28;20512;-68
2023/08/20 07:48:40;;;;;;;11.03;8.53;;;34.10;6.00;;;;;;5094532;28;20416;-68
2023/08/20 07:51:06;;;;;;;8.67;7.87;;;33.80;6.30;;;;;;5093944;28;20416;-68
2023/08/20 07:53:32;;;;;;;8.33;7.63;;;32.30;7.80;;;;;;5094411;28;20200;-68
2023/08/20 07:55:59;;;;;;;9.03;8.13;;;32.00;9.60;;;;;;5094659;28;20219;-69
2023/08/20 07:58:25;;;;;;;8.87;8.00;;;32.10;9.20;;;;;;5094754;28;20418;-68
2023/08/20 08:00:50;;;;;;;12.13;7.83;;;32.70;9.50;;;;;;5094711;28;20446;-68
2023/08/20 08:03:16;;;;;;;9.10;8.30;;;33.40;8.20;;;;;;5094350;28;20254;-68
2023/08/20 08:05:49;;;;;;;8.37;7.67;;;33.60;7.80;;;;;;5094624;28;20197;-68
2023/08/20 08:08:18;;;;;;;9.13;8.33;;;34.40;6.10;;;;;;5094686;28;20448;-69
2023/08/20 08:10:45;;;;;;;16.90;8.60;;;34.20;6.50;;;;;;5094717;28;20437;-68
2023/08/20 08:13:15;;;;;;;8.63;7.73;;;33.90;6.50;;;;;;5094078;28;20469;-68
2023/08/20 08:15:40;;;;;;;9.83;8.83;;;35.50;5.40;;;;;;5094686;28;20410;-68
2023/08/20 08:18:07;;;;;;;10.03;9.30;;;36.10;4.20;;;;;;5094729;28;20415;-68
2023/08/20 08:20:33;;;;;;;10.03;9.20;;;37.00;3.20;;;;;;5094955;28;20657;-68
2023/08/20 08:22:58;;;;;;;8.87;8.17;;;37.20;3.20;;;;;;5094690;28;20415;-68
2023/08/20 08:25:24;;;;;;;11.13;9.73;;;37.00;2.70;;;;;;5094962;28;20568;-68
2023/08/20 08:27:49;;;;;;;13.40;10.37;;;38.00;1.40;;;;;;5094764;28;20188;-68
2023/08/20 08:30:15;;;;;;;9.10;8.20;;;38.30;1.40;;;;;;5094833;28;20180;-68
2023/08/20 08:32:41;;;;;;;10.43;9.33;;;38.80;1.00;;;;;;5076043;28;20165;-68
2023/08/20 08:35:07;;;;;;;9.53;8.60;;;40.40;1.00;;;;;;5093869;28;20200;-69
2023/08/20 08:37:33;;;;;;;12.20;10.50;;;41.70;1.00;;;;;;5093813;28;20169;-69
2023/08/20 08:39:58;;;;;;;10.53;9.63;;;40.80;1.00;;;;;;5093896;28;20459;-69
2023/08/20 08:42:25;;;;;;;10.10;9.30;;;41.80;1.00;;;;;;5093534;28;20702;-68
2023/08/20 08:44:50;;;;;;;8.37;7.77;;;41.90;1.00;;;;;;5093459;28;20287;-68
2023/08/20 08:47:18;;;;;;;10.23;9.33;;;42.40;1.00;;;;;;5093534;28;20561;-68
2023/08/20 08:49:46;;;;;;;9.60;8.90;;;41.80;1.00;;;;;;5093695;28;20169;-68
2023/08/20 08:52:12;;;;;;;9.93;9.20;;;41.50;1.00;;;;;;5093309;28;20427;-69
2023/08/20 08:54:37;;;;;;;9.07;8.37;;;41.20;1.00;;;;;;5093639;28;20434;-68
2023/08/20 08:57:04;;;;;;;11.47;10.57;;;41.30;1.00;;;;;;5094025;28;20178;-68
2023/08/20 08:59:29;;;;;;;9.57;8.77;;;40.50;1.00;;;;;;5094125;28;20181;-69
2023/08/20 09:01:56;;;;;;;9.30;8.60;;;38.90;1.00;;;;;;5094024;28;20476;-68
2023/08/20 09:04:22;;;;;;;9.50;8.80;;;37.20;1.00;;;;;;5093653;28;20254;-69
2023/08/20 09:06:48;;;;;;;9.20;8.40;;;35.20;2.60;;;;;;5093296;28;20546;-68
2023/08/20 09:09:14;;;;;;;9.03;8.13;;;33.60;5.10;;;;;;5075056;28;20424;-68
2023/08/20 09:11:40;;;;;;;9.63;8.83;;;32.50;7.50;;;;;;5092960;28;20408;-69
2023/08/20 09:14:06;;;;;;;10.10;9.30;;;31.70;9.00;;;;;;5093286;28;20203;-68
2023/08/20 09:16:32;;;;;;;9.20;8.20;;;31.60;9.90;;;;;;5093109;28;20177;-68
2023/08/20 09:19:01;;;;;;;8.73;7.83;;;31.20;9.60;;;;;;5093251;28;20590;-68
2023/08/20 09:21:30;;;;;;;8.33;7.60;;;31.10;11.00;;;;;;5092985;28;20404;-68
2023/08/20 09:23:57;;;;;;;9.23;8.33;;;30.90;11.70;;;;;;5092601;28;20434;-68
2023/08/20 09:26:23;;;;;;;9.37;8.47;;;30.80;11.80;;;;;;5092778;28;20477;-68
2023/08/20 09:28:49;;;;;;;9.77;8.70;;;30.90;12.50;;;;;;5093092;28;20594;-69
2023/08/20 09:31:15;;;;;;;10.00;8.67;;;30.80;11.70;;;;;;5092932;28;20260;-68
2023/08/20 09:33:50;;;;;;;13.13;9.63;;;30.60;12.50;;;;;;5092589;28;20193;-68
2023/08/20 09:36:16;;;;;;;9.83;8.80;;;30.60;12.50;;;;;;5092708;28;20407;-68
2023/08/20 09:38:42;;;;;;;9.10;8.27;;;30.70;12.00;;;;;;5092819;28;20438;-68
2023/08/20 09:41:08;;;;;;;8.10;7.50;;;30.70;12.50;;;;;;5092807;28;20177;-68
2023/08/20 09:43:37;;;;;;;9.53;8.73;;;30.80;12.20;;;;;;5092480;28;20270;-68
2023/08/20 09:46:05;;;;;;;12.50;8.40;;;30.80;12.70;;;;;;5093358;28;20985;-69
2023/08/20 09:48:35;;;;;;;10.37;9.37;;;30.90;11.40;;;;;;5092341;28;20439;-69
2023/08/20 09:51:05;;;;;;;10.17;7.70;;;30.80;11.60;;;;;;5092498;28;20407;-69
2023/08/20 09:53:57;;;;;;;8.03;7.23;;;30.80;10.80;;;;;;5092202;28;20462;-69
2023/08/20 09:56:31;;;;;;;9.47;8.00;;;30.80;10.80;;;;;;5084223;28;20419;-70
2023/08/20 09:59:00;;;;;;;8.03;7.27;;;30.70;10.40;;;;;;5091639;28;20467;-70
2023/08/20 10:01:27;;;;;;;8.23;7.53;;;30.70;10.70;;;;;;5064816;28;20881;-69
2023/08/20 10:03:53;;;;;;;11.53;6.77;;;30.80;10.10;;;;;;5071988;28;20435;-70
2023/08/20 10:06:20;;;;;;;9.43;7.97;;;30.90;11.20;;;;;;5090905;28;20447;-70
2023/08/20 10:08:46;;;;;;;8.00;7.40;;;30.80;11.10;;;;;;5092238;28;20435;-70
2023/08/20 10:11:12;;;;;;;8.10;7.50;;;31.00;10.60;;;;;;5092154;28;20971;-70
2023/08/20 10:13:39;;;;;;;6.90;6.20;;;31.20;9.60;;;;;;5091625;28;20840;-70
2023/08/20 10:16:05;;;;;;;8.83;7.87;;;31.30;9.30;;;;;;5092164;28;20419;-69
2023/08/20 10:18:31;;;;;;;7.20;6.63;;;31.30;9.50;;;;;;5091934;28;20422;-69
2023/08/20 10:21:01;;;;;;;9.00;8.13;;;31.40;9.70;;;;;;5092057;28;20184;-70
2023/08/20 10:23:26;;;;;;;8.87;7.90;;;31.60;8.90;;;;;;5073576;28;20204;-70
2023/08/20 10:25:53;;;;;;;8.70;7.87;;;31.60;8.40;;;;;;5091792;28;20455;-70
2023/08/20 10:28:31;;;;;;;8.33;7.70;;;31.50;9.80;;;;;;5091951;28;20174;-71
2023/08/20 10:31:11;;;;;;;9.13;7.50;;;31.50;8.10;;;;;;5092075;28;20464;-69
2023/08/20 10:33:39;;;;;;;7.57;6.77;;;31.30;9.70;;;;;;5093776;28;20435;-70
2023/08/20 10:36:15;;;;;;;8.10;7.30;;;31.40;9.00;;;;;;5094747;28;20460;-69
2023/08/20 10:38:41;;;;;;;8.70;8.00;;;31.50;9.70;;;;;;5095847;28;20399;-70
2023/08/20 10:41:08;;;;;;;10.83;8.20;;;31.50;9.30;;;;;;5096196;28;20422;-70
2023/08/20 10:43:36;;;;;;;8.67;7.87;;;31.60;9.80;;;;;;5095858;28;20209;-70
2023/08/20 10:46:22;;;;;;;11.43;9.10;;;31.70;9.00;;;;;;5095907;28;20572;-69
2023/08/20 10:48:58;;;;;;;8.33;7.33;;;31.50;9.00;;;;;;5095961;28;20911;-70
2023/08/20 10:51:28;;;;;;;12.00;8.30;;;31.60;8.70;;;;;;5095925;28;20398;-70
2023/08/20 10:54:00;;;;;;;7.50;6.80;;;31.60;8.00;;;;;;5095729;28;20426;-70
2023/08/20 10:56:41;;;;;;;6.97;6.27;;;31.80;7.70;;;;;;5095831;28;20482;-70
2023/08/20 10:59:15;;;;;;;7.40;6.80;;;31.50;7.20;;;;;;5095904;28;20460;-71
2023/08/20 11:01:50;;;;;;;7.80;7.10;;;31.50;7.30;;;;;;5095856;28;20498;-70
2023/08/20 11:04:16;;;;;;;8.17;7.37;;;31.80;7.00;;;;;;5095573;28;20426;-70
2023/08/20 11:06:43;;;;;;;6.70;6.20;;;31.90;6.30;;;;;;5095486;28;20460;-70
2023/08/20 11:09:10;;;;;;;8.03;7.33;;;31.90;6.20;;;;;;5095555;28;20403;-70
2023/08/20 11:11:38;;;;;;;7.97;7.30;;;31.80;6.80;;;;;;5095191;28;20403;-71
2023/08/20 11:14:11;;;;;;;8.60;7.20;;;32.00;6.20;;;;;;5095406;28;20434;-70
2023/08/20 11:16:37;;;;;;;7.40;6.80;;;32.30;5.50;;;;;;5095458;28;20407;-72
2023/08/20 11:19:08;;;;;;;7.37;6.77;;;32.30;5.10;;;;;;5095298;28;20419;-70
2023/08/20 11:21:34;;;;;;;7.80;7.10;;;32.30;5.00;;;;;;5095254;28;20520;-70
2023/08/20 11:24:01;;;;;;;8.20;7.37;;;32.40;4.90;;;;;;5095173;28;20427;-70
2023/08/20 11:26:27;;;;;;;8.60;7.90;;;32.50;4.10;;;;;;5095148;28;20465;-71
2023/08/20 11:28:52;;;;;;;7.23;6.63;;;32.60;4.10;;;;;;5087128;28;20422;-70
2023/08/20 11:31:19;;;;;;;9.67;7.20;;;32.70;4.60;;;;;;5115429;28;20410;-70
2023/08/20 11:33:45;;;;;;;8.93;8.07;;;32.70;4.60;;;;;;5096876;28;20192;-70
2023/08/20 11:36:11;;;;;;;9.17;8.40;;;32.70;4.40;;;;;;5097125;28;20425;-70
2023/08/20 11:38:37;;;;;;;7.20;6.57;;;32.70;3.80;;;;;;5115224;28;20177;-71
2023/08/20 11:41:02;;;;;;;9.27;7.20;;;32.80;3.10;;;;;;5115350;28;20412;-70
2023/08/20 11:43:29;;;;;;;12.90;6.60;;;32.90;3.20;;;;;;5114953;28;20207;-70
2023/08/20 11:45:55;;;;;;;7.73;7.13;;;33.00;2.30;;;;;;5115150;28;20200;-70
2023/08/20 11:48:21;;;;;;;6.80;6.20;;;33.00;1.90;;;;;;5114760;28;20441;-71
2023/08/20 11:50:47;;;;;;;9.43;7.10;;;33.20;2.20;;;;;;5115159;28;20493;-70
2023/08/20 11:53:13;;;;;;;9.23;8.33;;;33.30;2.40;;;;;;5114852;28;20792;-70
2023/08/20 11:55:42;;;;;;;8.50;7.70;;;33.40;2.80;;;;;;5115015;28;20406;-71
2023/08/20 11:58:14;;;;;;;8.30;7.50;;;33.40;2.30;;;;;;5114909;28;20588;-70
2023/08/20 12:00:40;;;;;;;7.63;6.93;;;33.30;2.00;;;;;;5114816;28;20406;-70
2023/08/20 12:03:08;;;;;;;10.17;7.80;;;33.30;2.40;;;;;;5114679;28;20774;-70
2023/08/20 12:05:34;;;;;;;8.37;7.77;;;33.30;2.20;;;;;;5114851;28;20549;-71
2023/08/20 12:08:02;;;;;;;7.67;7.07;;;33.40;2.00;;;;;;5114808;28;20413;-70
2023/08/20 12:10:29;;;;;;;9.20;8.30;;;33.50;3.60;;;;;;5114766;28;20176;-70
2023/08/20 12:12:56;;;;;;;9.27;7.60;;;33.30;4.10;;;;;;5114453;28;20511;-70
2023/08/20 12:15:22;;;;;;;7.73;7.13;;;33.30;4.00;;;;;;5114641;28;20411;-70
2023/08/20 12:17:58;;;;;;;7.93;7.23;;;33.40;3.40;;;;;;5114358;28;20407;-71
2023/08/20 12:20:26;;;;;;;8.07;7.10;;;33.40;3.80;;;;;;5114568;28;20921;-70
2023/08/20 12:22:52;;;;;;;9.53;8.03;;;33.50;3.80;;;;;;5095954;28;20414;-70
2023/08/20 12:25:17;;;;;;;8.07;7.27;;;33.60;3.40;;;;;;5089706;28;20448;-71
2023/08/20 12:27:43;;;;;;;8.03;7.43;;;33.50;3.50;;;;;;5064096;28;20170;-71
2023/08/20 12:30:09;;;;;;;7.60;7.00;;;33.50;3.30;;;;;;5091216;28;20201;-71
2023/08/20 12:32:35;;;;;;;10.27;7.83;;;33.50;3.30;;;;;;5093583;28;20351;-72
2023/08/20 12:35:00;;;;;;;8.30;7.60;;;33.60;2.60;;;;;;5094014;28;20423;-71
2023/08/20 12:37:28;;;;;;;8.43;7.67;;;33.80;2.40;;;;;;5075907;28;20650;-71
2023/08/20 12:39:53;;;;;;;8.00;7.17;;;33.80;2.70;;;;;;5093830;28;20406;-71
2023/08/20 12:42:19;;;;;;;8.00;7.40;;;33.90;2.50;;;;;;5093737;28;20187;-71
2023/08/20 12:44:44;;;;;;;15.20;8.03;;;33.90;2.10;;;;;;5093413;28;20277;-71